Friday, November 24, 2017, 8:18 AM EST
Back to Local

KAUG, Augusta State Airport

Location: Augusta, ME, United States Lat: 44.317
Local Time: 8:18 AM EST (13:18 GMT) Lon: -69.8
Time Zone: US/Eastern Elev: 351 ft

Show me the last for .
Show Coded

Time T Td Feel RH Dir Speed Gust Alt SLP Vis Weather Sky Remarks
2017-11-24 07:53 31 21 26 66 220° 5 - 29.94 29.95 10 OVC070 None
2017-11-24 06:53 28 20 24 71 200° 3 - 29.94 29.95 10 OVC075 6-hr Min Temp (7am): 28.0°F
6-hr Max Temp (7am): 30.0°F
2017-11-24 05:53 28 19 24 68 190° 3 - 29.92 29.93 10 SCT080 None
2017-11-24 04:53 28 20 24 71 Variable 3 - 29.91 29.93 10 BKN085 None
2017-11-24 03:53 29 20 24 68 Variable 5 - 29.90 29.91 10 OVC090 None
2017-11-24 02:53 29 19 23 66 190° 6 - 29.90 29.91 10 OVC100 None
2017-11-24 01:53 29 19 24 66 210° 5 - 29.91 29.93 10 OVC090 None
2017-11-24 00:53 29 20 25 68 220° 3 - 29.91 29.92 10 OVC100 6-hr Min Temp (1am): 28.9°F
6-hr Max Temp (1am): 32.0°F
2017-11-23 23:53 30 18 26 60 220° 3 - 29.90 29.92 10 OVC100 24-hr Min Temp (12am): 27.0°F
24-hr Max Temp (12am): 36.0°F
2017-11-23 22:53 31 16 - 53 - Calm - 29.90 29.92 10 OVC100 None
2017-11-23 21:53 31 15 - 51 - Calm - 29.92 29.93 10 OVC095 None
2017-11-23 20:53 31 16 26 53 270° 5 - 29.93 29.94 10 OVC095 None
2017-11-23 19:53 31 16 - 53 - Calm - 29.93 29.95 10 OVC100 None
2017-11-23 18:53 31 15 - 51 - Calm - 29.95 29.96 10 OVC100 6-hr Min Temp (7pm): 30.0°F
6-hr Max Temp (7pm): 36.0°F
2017-11-23 17:53 30 16 23 55 320° 7 - 29.94 29.96 10 OVC100 None
2017-11-23 16:53 31 15 24 51 300° 7 - 29.95 29.96 10 OVC110 None
2017-11-23 15:53 32 15 26 49 290° 6 - 29.94 29.96 10 OVC120 None
2017-11-23 14:53 33 16 28 48 260° 6 - 29.93 29.94 10 CLR None
2017-11-23 13:53 35 16 28 45 290° 9 - 29.92 29.93 10 CLR None
2017-11-23 12:53 35 17 27 47 290° 10 - 29.92 29.93 10 CLR 6-hr Min Temp (1pm): 27.0°F
6-hr Max Temp (1pm): 35.1°F
2017-11-23 11:53 34 17 27 49 280° 9 - 29.94 29.95 10 CLR None
2017-11-23 10:53 32 16 24 51 280° 10 - 29.95 29.96 10 CLR None
2017-11-23 09:53 31 16 22 53 300° 12 - 29.96 29.97 10 CLR None
2017-11-23 08:53 29 16 17 57 290° 8 17 29.96 29.97 10 CLR None

Support USWX by starting your Amazon purchase here.